Time;durP1;ratioP1;P1;durP2;ratioP2;P2;SDS_P1;SDS_P2;PMS_P1;PMS_P2;Temp;Humidity;BMP_temperature;BMP_pressure;BME280_temperature;BME280_humidity;BME280_pressure;Samples;Min_cycle;Max_cycle;Signal;HPM_P1;HPM_P2
2021/09/30 00:01:57;;;;;;;7.00;4.00;;;;;;;7.45;59.38;101681.75;5030855;28;20041;-64
2021/09/30 00:04:22;;;;;;;5.57;3.83;;;;;;;7.49;59.10;101679.84;5029930;28;20044;-63
2021/09/30 00:06:48;;;;;;;3.83;2.40;;;;;;;7.49;59.00;101677.19;5030503;28;20025;-62
2021/09/30 00:09:15;;;;;;;3.75;2.42;;;;;;;7.45;58.81;101673.75;5030586;28;20421;-63
2021/09/30 00:11:44;;;;;;;4.18;2.42;;;;;;;7.46;58.99;101683.47;5029639;28;20175;-63
2021/09/30 00:33:08;;;;;;;2.20;1.55;;;;;;;7.40;58.68;101672.19;5052615;28;20033;-61
2021/09/30 00:35:50;;;;;;;2.97;1.50;;;;;;;7.45;58.78;101684.41;5050512;28;20063;-63
2021/09/30 00:49:28;;;;;;;2.95;1.92;;;;;;;7.54;59.15;101687.66;5033338;28;20051;-63
2021/09/30 01:45:47;;;;;;;15.35;6.13;;;;;;;7.73;59.35;101701.16;5043739;28;20040;-62
2021/09/30 02:59:43;;;;;;;7.93;4.40;;;;;;;7.42;59.34;101707.63;5030229;28;20036;-63
2021/09/30 03:02:10;;;;;;;7.38;4.10;;;;;;;7.39;59.54;101713.06;5030468;28;20044;-62
2021/09/30 03:04:38;;;;;;;6.75;4.68;;;;;;;7.40;59.75;101712.16;5046424;28;20080;-62
2021/09/30 03:07:06;;;;;;;7.35;4.68;;;;;;;7.48;59.62;101712.75;5047774;28;20033;-61
2021/09/30 03:09:41;;;;;;;6.28;4.47;;;;;;;7.47;59.74;101714.53;5031457;28;20555;-61
2021/09/30 03:12:16;;;;;;;8.75;5.00;;;;;;;7.43;59.73;101698.72;5030501;28;20036;-62
2021/09/30 03:14:46;;;;;;;8.95;4.88;;;;;;;7.52;59.90;101701.03;5030249;28;20112;-61
2021/09/30 03:17:19;;;;;;;7.97;4.93;;;;;;;7.47;59.96;101713.66;5030545;28;20061;-63
2021/09/30 03:22:14;;;;;;;8.45;4.45;;;;;;;7.45;60.32;101707.50;5033894;28;20022;-62
2021/09/30 03:24:49;;;;;;;8.13;4.68;;;;;;;7.51;60.26;101701.97;5031051;28;20040;-63
2021/09/30 03:27:16;;;;;;;6.72;4.75;;;;;;;7.41;60.18;101698.78;5030244;28;20511;-63
2021/09/30 03:29:42;;;;;;;6.63;4.20;;;;;;;7.35;60.43;101695.47;5029815;28;20167;-64
2021/09/30 03:32:08;;;;;;;7.45;4.47;;;;;;;7.30;60.40;101700.97;5030670;28;20108;-62
2021/09/30 03:34:34;;;;;;;6.75;3.80;;;;;;;7.23;60.41;101696.78;5030717;28;20474;-62
2021/09/30 03:37:02;;;;;;;5.95;3.80;;;;;;;7.24;60.58;101703.84;5030142;28;20501;-60
2021/09/30 03:39:29;;;;;;;5.28;3.50;;;;;;;7.23;60.87;101710.97;5029334;28;20037;-63
2021/09/30 03:41:55;;;;;;;6.40;3.72;;;;;;;7.24;60.44;101710.06;5042408;28;20064;-63
2021/09/30 03:44:21;;;;;;;9.30;3.95;;;;;;;7.06;60.66;101684.09;5048853;28;20094;-63
2021/09/30 03:46:51;;;;;;;6.28;3.60;;;;;;;7.20;60.91;101711.06;5048134;28;20029;-63
2021/09/30 03:49:26;;;;;;;7.40;4.15;;;;;;;7.15;61.29;101705.06;5050833;28;20082;-63
2021/09/30 03:51:59;;;;;;;6.15;3.88;;;;;;;7.12;61.76;101700.72;5051090;28;20029;-63
2021/09/30 03:54:42;;;;;;;5.97;3.85;;;;;;;7.09;61.78;101710.59;5054406;28;20064;-63
2021/09/30 03:59:59;;;;;;;5.80;3.88;;;;;;;7.14;61.60;101705.97;5056568;28;20190;-64
2021/09/30 04:02:24;;;;;;;6.47;3.85;;;;;;;7.17;61.77;101712.06;5054215;28;20025;-63
2021/09/30 04:04:50;;;;;;;8.35;4.55;;;;;;;7.20;61.45;101708.41;5053916;28;20037;-62
2021/09/30 04:07:17;;;;;;;6.10;4.15;;;;;;;7.23;61.88;101713.63;5051839;28;20037;-63
2021/09/30 04:09:42;;;;;;;6.85;4.38;;;;;;;7.01;61.60;101669.16;5054000;28;20032;-64
2021/09/30 04:12:12;;;;;;;6.40;4.53;;;;;;;7.19;61.48;101701.34;5041911;28;20047;-62
2021/09/30 04:14:39;;;;;;;4.97;4.07;;;;;;;7.24;61.48;101709.19;5032242;28;20029;-63
2021/09/30 04:17:05;;;;;;;6.65;4.55;;;;;;;7.20;61.91;101724.41;5033915;28;20111;-61
2021/09/30 04:19:31;;;;;;;7.95;4.70;;;;;;;7.19;61.54;101722.66;5034236;28;20095;-62
2021/09/30 04:21:57;;;;;;;6.75;4.55;;;;;;;7.19;61.80;101714.66;5033281;28;20676;-62
2021/09/30 04:24:23;;;;;;;6.95;4.60;;;;;;;7.17;61.73;101714.75;5036635;28;20386;-63
2021/09/30 04:26:51;;;;;;;7.45;5.05;;;;;;;7.17;61.84;101722.72;5034063;28;20083;-63
2021/09/30 04:29:17;;;;;;;6.90;4.72;;;;;;;7.21;62.01;101718.16;5033252;28;20045;-62
2021/09/30 04:31:43;;;;;;;7.47;4.75;;;;;;;7.17;62.05;101719.19;5033310;28;20072;-62
2021/09/30 04:34:09;;;;;;;10.52;5.03;;;;;;;7.20;62.02;101718.22;5033127;28;20035;-62
2021/09/30 04:36:34;;;;;;;7.40;4.32;;;;;;;7.22;61.89;101709.22;5036474;28;20029;-62
2021/09/30 04:39:01;;;;;;;8.85;5.07;;;;;;;7.21;61.88;101720.81;5036207;28;20044;-60
2021/09/30 04:41:27;;;;;;;7.63;4.88;;;;;;;7.30;61.65;101719.59;5033301;28;20068;-60
2021/09/30 04:43:52;;;;;;;6.07;4.60;;;;;;;7.27;61.68;101725.94;5050986;28;20923;-62
2021/09/30 04:46:20;;;;;;;4.90;3.58;;;;;;;7.29;61.49;101734.75;5050260;28;20087;-61
2021/09/30 04:48:47;;;;;;;5.47;4.07;;;;;;;7.26;60.82;101724.19;5047570;28;20385;-63
2021/09/30 04:51:13;;;;;;;4.15;3.00;;;;;;;7.28;60.27;101716.13;5033255;28;20063;-62
2021/09/30 04:53:39;;;;;;;6.25;3.85;;;;;;;7.45;60.38;101734.16;5030952;28;20037;-62
2021/09/30 04:56:05;;;;;;;7.00;4.40;;;;;;;7.39;60.60;101731.72;5030877;28;20058;-62
2021/09/30 04:58:31;;;;;;;7.00;4.68;;;;;;;7.36;61.13;101730.06;5014718;28;20033;-63
2021/09/30 05:00:57;;;;;;;5.97;4.22;;;;;;;7.34;60.95;101715.91;5032793;28;20034;-63
2021/09/30 05:03:22;;;;;;;5.70;3.63;;;;;;;7.52;60.41;101732.16;5031400;28;20034;-62
2021/09/30 05:05:47;;;;;;;6.57;4.45;;;;;;;7.38;60.89;101722.00;5033044;28;20462;-63
2021/09/30 05:08:13;;;;;;;9.02;5.38;;;;;;;7.33;61.19;101731.03;5032101;28;20120;-62
2021/09/30 05:10:40;;;;;;;7.03;4.65;;;;;;;7.33;61.34;101731.03;5030951;28;20048;-62
2021/09/30 05:13:08;;;;;;;7.05;4.32;;;;;;;7.39;61.98;101742.38;5032678;28;20392;-63
2021/09/30 05:15:36;;;;;;;7.95;5.18;;;;;;;7.41;62.60;101743.19;5048632;28;20035;-62
2021/09/30 05:18:05;;;;;;;9.07;4.80;;;;;;;7.47;61.26;101749.19;5051969;28;20037;-63
2021/09/30 05:20:32;;;;;;;9.38;4.57;;;;;;;7.42;61.73;101742.28;5045011;28;20029;-62
2021/09/30 05:22:57;;;;;;;10.25;5.80;;;;;;;7.57;60.28;101743.50;5030652;28;20033;-62
2021/09/30 05:25:24;;;;;;;7.47;5.07;;;;;;;7.34;61.21;101739.88;5031740;28;20401;-61
2021/09/30 05:27:52;;;;;;;10.57;5.43;;;;;;;7.31;61.34;101742.66;5036717;28;20029;-64
2021/09/30 05:30:17;;;;;;;9.95;5.28;;;;;;;7.36;61.59;101747.84;5032076;28;20429;-64
2021/09/30 05:32:43;;;;;;;9.18;6.03;;;;;;;7.42;61.67;101744.94;5031872;28;20030;-64
2021/09/30 05:35:09;;;;;;;9.55;5.47;;;;;;;7.49;61.11;101746.47;5032321;28;20033;-63
2021/09/30 05:37:34;;;;;;;9.63;5.68;;;;;;;7.58;61.18;101751.47;5032497;28;20174;-63
2021/09/30 05:40:00;;;;;;;7.45;5.10;;;;;;;7.61;60.95;101740.69;5040923;28;20021;-64
2021/09/30 05:42:25;;;;;;;8.57;4.80;;;;;;;7.56;60.82;101732.00;5052214;28;20097;-63
2021/09/30 05:44:51;;;;;;;7.80;5.43;;;;;;;7.37;61.00;101709.59;5047367;28;20048;-63
2021/09/30 05:47:18;;;;;;;8.70;5.10;;;;;;;7.38;61.14;101712.22;5030620;28;20357;-64
2021/09/30 05:49:43;;;;;;;8.63;4.97;;;;;;;7.55;61.26;101742.69;5030712;28;20026;-64
2021/09/30 05:52:09;;;;;;;7.55;5.03;;;;;;;7.60;61.17;101754.94;5035739;28;20028;-66
2021/09/30 05:54:35;;;;;;;8.02;4.68;;;;;;;7.60;60.81;101738.94;5032707;28;20126;-67
2021/09/30 05:57:00;;;;;;;6.00;4.10;;;;;;;7.70;60.59;101747.47;5031582;28;20107;-66
2021/09/30 05:59:26;;;;;;;5.95;3.70;;;;;;;7.73;60.16;101742.00;5031543;28;20634;-67
2021/09/30 06:10:21;;;;;;;7.43;3.97;;;;;;;7.80;59.59;101739.97;5031016;28;20667;-66
2021/09/30 06:13:00;;;;;;;9.18;4.40;;;;;;;7.87;59.68;101744.16;5031759;28;20044;-66
2021/09/30 06:15:29;;;;;;;11.95;6.20;;;;;;;7.93;59.43;101744.84;5041310;28;20472;-66
2021/09/30 06:17:56;;;;;;;7.90;5.43;;;;;;;7.96;58.80;101742.94;5044570;28;20029;-67
2021/09/30 06:20:22;;;;;;;11.05;4.90;;;;;;;7.95;59.11;101740.31;5031093;28;20481;-65
2021/09/30 06:22:47;;;;;;;7.85;4.40;;;;;;;8.04;59.09;101747.97;5030638;28;20032;-66
2021/09/30 06:25:13;;;;;;;5.57;3.78;;;;;;;8.11;57.99;101749.47;5031342;28;20032;-66
2021/09/30 06:27:38;;;;;;;4.43;2.92;;;;;;;7.97;57.83;101722.47;5030765;28;20084;-65
2021/09/30 06:30:05;;;;;;;5.93;2.90;;;;;;;8.11;57.93;101751.28;5040072;28;20040;-66
2021/09/30 06:32:30;;;;;;;5.05;3.55;;;;;;;8.18;57.51;101742.94;5038606;28;20079;-66
2021/09/30 06:34:56;;;;;;;7.50;3.25;;;;;;;8.25;57.49;101740.91;5039760;28;20033;-67
2021/09/30 06:37:21;;;;;;;3.55;2.75;;;;;;;8.28;56.95;101751.44;5039317;28;20029;-66
2021/09/30 06:39:46;;;;;;;5.60;2.58;;;;;;;8.26;56.81;101750.63;5039254;28;20031;-66
2021/09/30 06:42:12;;;;;;;4.10;2.45;;;;;;;8.19;55.69;101730.47;5039529;28;20036;-65
2021/09/30 06:44:37;;;;;;;3.83;2.40;;;;;;;8.23;55.98;101752.59;5039702;28;20465;-67
2021/09/30 06:47:03;;;;;;;2.83;2.00;;;;;;;8.23;56.38;101753.44;5038823;28;20028;-66
2021/09/30 06:49:29;;;;;;;7.35;2.85;;;;;;;8.32;55.74;101752.19;5040035;28;20040;-65
2021/09/30 06:51:54;;;;;;;4.60;2.97;;;;;;;8.26;56.49;101739.97;5037068;28;20029;-66
2021/09/30 06:54:19;;;;;;;6.63;4.50;;;;;;;8.03;57.34;101712.41;5040358;28;20469;-67
2021/09/30 06:56:48;;;;;;;9.20;4.10;;;;;;;8.27;57.30;101743.53;5040583;28;20061;-67
2021/09/30 06:59:19;;;;;;;6.75;4.22;;;;;;;8.33;56.96;101740.59;5038795;28;20029;-66
2021/09/30 07:01:45;;;;;;;5.03;2.88;;;;;;;8.47;56.17;101745.38;5049711;28;20104;-67
2021/09/30 07:04:11;;;;;;;5.28;3.47;;;;;;;8.63;55.88;101745.63;5048758;28;20099;-66
2021/09/30 07:06:36;;;;;;;6.28;2.72;;;;;;;8.79;55.21;101753.00;5042047;28;20470;-68
2021/09/30 07:09:04;;;;;;;5.55;3.13;;;;;;;8.90;54.72;101745.41;5030124;28;20049;-67
2021/09/30 07:11:30;;;;;;;7.65;3.47;;;;;;;8.87;54.61;101748.19;5030411;28;20241;-68
2021/09/30 07:13:55;;;;;;;8.10;3.22;;;;;;;8.89;54.96;101744.53;5030566;28;20445;-66
2021/09/30 07:16:21;;;;;;;6.15;3.10;;;;;;;8.90;54.78;101759.63;5030108;28;20033;-63
2021/09/30 07:18:46;;;;;;;6.00;3.30;;;;;;;8.96;54.75;101747.84;5029545;28;20098;-64
2021/09/30 07:21:12;;;;;;;11.57;3.28;;;;;;;8.97;54.80;101743.34;5028957;28;20124;-64
2021/09/30 07:23:38;;;;;;;10.68;2.50;;;;;;;8.98;54.38;101748.63;5031479;28;20484;-65
2021/09/30 07:26:07;;;;;;;5.10;2.42;;;;;;;9.01;54.49;101744.94;5029027;28;20083;-66
2021/09/30 07:28:33;;;;;;;4.10;2.40;;;;;;;9.00;54.15;101744.09;5030277;28;20414;-65
2021/09/30 07:30:59;;;;;;;5.13;2.47;;;;;;;8.99;54.34;101742.34;5031005;28;20466;-65
2021/09/30 07:33:24;;;;;;;4.15;2.38;;;;;;;9.08;54.41;101754.44;5030339;28;20036;-65
2021/09/30 07:35:51;;;;;;;4.72;2.67;;;;;;;9.11;54.28;101746.28;5030476;28;20037;-65
2021/09/30 07:38:17;;;;;;;4.30;2.45;;;;;;;9.14;54.16;101750.63;5030606;28;20385;-64
2021/09/30 07:40:43;;;;;;;5.72;3.10;;;;;;;9.13;53.96;101748.88;5029574;28;20091;-65
2021/09/30 07:43:08;;;;;;;7.03;3.60;;;;;;;9.07;53.84;101746.47;5029169;28;20030;-65
2021/09/30 07:45:35;;;;;;;12.50;4.03;;;;;;;8.85;54.81;101750.97;5030439;28;20040;-66
2021/09/30 07:48:01;;;;;;;6.82;3.42;;;;;;;8.87;55.37;101748.19;5030447;28;20037;-62
2021/09/30 07:50:27;;;;;;;4.85;2.97;;;;;;;8.69;55.40;101713.34;5029622;28;20486;-62
2021/09/30 07:52:53;;;;;;;4.35;2.75;;;;;;;8.79;54.38;101712.94;5030145;28;20037;-64
2021/09/30 07:55:19;;;;;;;9.27;2.80;;;;;;;9.11;54.11;101734.72;5028273;28;20075;-65
2021/09/30 07:57:44;;;;;;;4.78;3.03;;;;;;;9.29;53.14;101736.59;5029173;28;20025;-63
2021/09/30 08:00:11;;;;;;;4.63;3.10;;;;;;;9.40;53.10;101745.91;5030005;28;20036;-64
2021/09/30 08:02:36;;;;;;;4.88;2.85;;;;;;;9.42;52.81;101741.41;5029033;28;20030;-64
2021/09/30 08:05:02;;;;;;;5.90;3.85;;;;;;;9.40;53.24;101745.91;5028859;28;20029;-63
2021/09/30 08:07:28;;;;;;;8.10;3.40;;;;;;;9.39;53.37;101741.50;5029687;28;20460;-64
2021/09/30 08:09:54;;;;;;;4.30;3.05;;;;;;;9.33;53.23;101735.50;5029348;28;20121;-62
2021/09/30 08:12:19;;;;;;;5.55;3.15;;;;;;;9.19;53.11;101721.91;5029099;28;20037;-64
2021/09/30 08:14:45;;;;;;;7.10;3.25;;;;;;;9.24;53.27;101743.06;5029163;28;20463;-64
2021/09/30 08:17:11;;;;;;;5.18;3.28;;;;;;;9.16;53.64;101727.38;5029830;28;20040;-63
2021/09/30 08:19:36;;;;;;;5.13;3.28;;;;;;;9.19;54.08;101744.13;5028416;28;20545;-63
2021/09/30 08:22:02;;;;;;;6.47;3.45;;;;;;;9.23;53.64;101750.22;5028909;28;20056;-62
2021/09/30 08:24:28;;;;;;;6.50;3.05;;;;;;;9.29;53.08;101739.25;5027350;28;20026;-63
2021/09/30 08:26:53;;;;;;;4.68;3.15;;;;;;;9.37;52.59;101741.59;5027902;28;20462;-60
2021/09/30 08:29:19;;;;;;;3.83;2.92;;;;;;;9.21;52.99;101743.19;5029308;28;20124;-62
2021/09/30 08:31:45;;;;;;;5.78;2.85;;;;;;;9.19;53.39;101751.31;5027899;28;20034;-61
2021/09/30 08:34:12;;;;;;;4.65;3.13;;;;;;;9.26;53.49;101749.22;5029212;28;20071;-61
2021/09/30 08:36:37;;;;;;;4.55;3.17;;;;;;;9.27;53.23;101733.13;5029359;28;20034;-62
2021/09/30 08:39:06;;;;;;;5.07;3.00;;;;;;;9.44;52.41;101745.72;5031895;28;20091;-64
2021/09/30 08:41:32;;;;;;;3.15;2.35;;;;;;;9.52;52.09;101750.72;5032139;28;20441;-64
2021/09/30 08:43:57;;;;;;;4.47;2.55;;;;;;;9.32;52.57;101739.13;5033297;28;20121;-64
2021/09/30 08:46:23;;;;;;;3.63;2.33;;;;;;;9.30;52.54;101730.31;5033202;28;20108;-62
2021/09/30 08:48:48;;;;;;;2.40;1.92;;;;;;;9.31;52.77;101737.38;5033167;28;20108;-63
2021/09/30 08:51:15;;;;;;;3.38;1.92;;;;;;;9.40;52.55;101740.56;5033875;28;20105;-59
2021/09/30 08:53:41;;;;;;;3.10;2.63;;;;;;;9.42;52.39;101734.22;5041319;28;20092;-60
2021/09/30 08:56:08;;;;;;;3.60;2.97;;;;;;;9.45;52.24;101728.75;5049665;28;20041;-60
2021/09/30 08:58:35;;;;;;;4.05;2.70;;;;;;;9.45;52.27;101730.56;5052657;28;20029;-61
2021/09/30 09:01:01;;;;;;;3.63;2.60;;;;;;;9.49;52.51;101734.81;5047170;28;20068;-61
2021/09/30 09:03:35;;;;;;;8.43;3.03;;;;;;;9.55;52.82;101733.69;5051635;28;20109;-61
2021/09/30 09:06:00;;;;;;;4.40;2.83;;;;;;;9.53;53.12;101731.06;5032276;28;20030;-59
2021/09/30 09:08:26;;;;;;;5.03;3.20;;;;;;;9.55;52.75;101737.22;5032038;28;20490;-58
2021/09/30 09:10:54;;;;;;;3.95;2.60;;;;;;;9.67;51.72;101745.63;5032809;28;20045;-60
2021/09/30 09:13:21;;;;;;;4.72;3.30;;;;;;;9.44;52.79;101736.84;5031986;28;20044;-56
2021/09/30 09:15:47;;;;;;;5.07;3.65;;;;;;;9.21;53.85;101737.84;5032093;28;20452;-59
2021/09/30 09:18:19;;;;;;;7.18;4.13;;;;;;;9.17;54.10;101743.34;5033169;28;20098;-59
2021/09/30 09:20:47;;;;;;;4.88;3.58;;;;;;;9.22;54.16;101743.16;5031924;28;20033;-59
2021/09/30 09:23:13;;;;;;;9.32;5.63;;;;;;;9.13;53.90;101736.41;5031992;28;20623;-56
2021/09/30 09:25:39;;;;;;;11.98;4.32;;;;;;;9.02;55.03;101739.53;5031658;28;20048;-63
2021/09/30 09:28:04;;;;;;;5.95;3.47;;;;;;;9.05;54.95;101751.91;5032662;28;20036;-58
2021/09/30 09:30:38;;;;;;;5.97;3.72;;;;;;;9.18;54.30;101754.91;5032303;28;20030;-59
2021/09/30 09:33:21;;;;;;;4.45;3.72;;;;;;;9.16;54.74;101754.97;5031709;28;20037;-60
2021/09/30 09:36:03;;;;;;;7.10;3.38;;;;;;;9.04;54.55;101726.09;5032803;28;20037;-61
2021/09/30 09:38:51;;;;;;;4.82;3.58;;;;;;;9.33;54.45;101743.53;5031397;28;20030;-61
2021/09/30 09:41:29;;;;;;;7.03;3.70;;;;;;;9.30;54.56;101741.00;5040039;28;20041;-59
2021/09/30 09:44:00;;;;;;;5.70;4.00;;;;;;;9.32;54.55;101746.28;5032134;28;20053;-61
2021/09/30 09:46:30;;;;;;;5.32;3.85;;;;;;;9.39;54.50;101745.06;5032179;28;20060;-61
2021/09/30 09:49:00;;;;;;;5.05;3.55;;;;;;;9.26;53.88;101707.31;5031505;28;20112;-62
2021/09/30 09:51:33;;;;;;;5.65;3.70;;;;;;;9.51;54.08;101743.66;5030326;28;20033;-62
2021/09/30 09:53:59;;;;;;;5.43;3.78;;;;;;;9.44;53.83;101737.69;5036428;28;20036;-62
2021/09/30 09:56:25;;;;;;;5.38;3.70;;;;;;;9.25;54.08;101710.94;5031883;28;20037;-62
2021/09/30 09:58:57;;;;;;;3.95;3.05;;;;;;;9.56;53.85;101744.28;5031026;28;20044;-62
2021/09/30 10:01:25;;;;;;;6.57;3.90;;;;;;;9.63;53.72;101740.41;5033057;28;20043;-66
2021/09/30 10:03:58;;;;;;;4.95;3.33;;;;;;;9.76;53.03;101734.50;5017177;28;20037;-60
2021/09/30 10:06:24;;;;;;;4.45;3.35;;;;;;;9.74;52.25;101728.34;5031672;28;20179;-63
2021/09/30 10:08:50;;;;;;;4.93;3.35;;;;;;;9.75;51.93;101732.75;5031307;28;20053;-62
2021/09/30 10:11:16;;;;;;;4.80;3.22;;;;;;;9.74;51.96;101744.41;5035398;28;20099;-62
2021/09/30 10:13:41;;;;;;;3.95;3.05;;;;;;;9.77;52.07;101738.91;5051614;28;20029;-61
2021/09/30 10:16:07;;;;;;;4.75;3.72;;;;;;;9.62;52.03;101716.41;5051249;28;20028;-60
2021/09/30 10:18:32;;;;;;;7.03;4.40;;;;;;;9.77;52.40;101733.56;5050916;28;20476;-60
2021/09/30 10:20:59;;;;;;;6.90;4.43;;;;;;;9.72;52.32;101735.56;5050879;28;20029;-59
2021/09/30 10:23:28;;;;;;;8.05;5.63;;;;;;;9.62;52.73;101746.69;5051487;28;20024;-61
2021/09/30 10:25:58;;;;;;;6.93;5.30;;;;;;;9.43;53.48;101745.81;5051207;28;20094;-62
2021/09/30 10:28:25;;;;;;;6.47;4.80;;;;;;;9.28;53.72;101750.00;5051097;28;20500;-59
2021/09/30 10:30:52;;;;;;;8.45;4.57;;;;;;;9.27;54.18;101750.94;5051108;28;20369;-60
2021/09/30 10:33:37;;;;;;;6.20;4.25;;;;;;;9.39;53.40;101755.75;5051615;28;20476;-64
2021/09/30 10:36:03;;;;;;;6.82;5.05;;;;;;;9.39;53.78;101746.84;5049323;28;20432;-57
2021/09/30 10:38:33;;;;;;;6.47;4.90;;;;;;;9.33;53.49;101740.84;5049442;28;20108;-60
2021/09/30 10:41:05;;;;;;;8.20;4.97;;;;;;;9.34;53.89;101747.94;5047453;28;20038;-60
2021/09/30 10:43:45;;;;;;;8.60;4.93;;;;;;;9.50;53.74;101749.94;5036793;28;20497;-61
2021/09/30 10:46:25;;;;;;;5.43;4.43;;;;;;;9.61;53.56;101744.09;5048842;28;20040;-61
2021/09/30 10:48:55;;;;;;;7.45;4.93;;;;;;;9.60;53.34;101753.91;5045840;28;20030;-61
2021/09/30 10:51:22;;;;;;;9.82;5.53;;;;;;;9.67;53.35;101749.16;5030586;28;20025;-61
2021/09/30 10:53:48;;;;;;;9.30;6.45;;;;;;;9.59;54.00;101749.50;5030187;28;20036;-60
2021/09/30 10:56:34;;;;;;;10.98;6.82;;;;;;;9.60;54.14;101748.56;5029474;28;20371;-61
2021/09/30 10:59:22;;;;;;;11.77;7.20;;;;;;;9.61;54.33;101752.97;5030128;28;20595;-59
2021/09/30 11:01:47;;;;;;;11.07;6.90;;;;;;;9.46;54.78;101753.69;5029213;28;20397;-62
2021/09/30 11:04:17;;;;;;;10.48;6.93;;;;;;;9.47;54.93;101752.75;5029841;28;20037;-61
2021/09/30 11:07:05;;;;;;;10.55;7.38;;;;;;;9.58;55.01;101749.59;5030373;28;20075;-62
2021/09/30 11:09:32;;;;;;;12.85;7.95;;;;;;;9.54;54.81;101761.38;5028748;28;20052;-60
2021/09/30 11:12:09;;;;;;;13.07;7.60;;;;;;;9.52;55.09;101755.19;5030293;28;20128;-61
2021/09/30 11:14:51;;;;;;;12.32;7.00;;;;;;;9.60;55.05;101758.41;5031092;28;20088;-62
2021/09/30 11:17:34;;;;;;;10.63;7.13;;;;;;;9.41;54.09;101719.13;5030797;28;20025;-63
2021/09/30 11:20:35;;;;;;;11.70;8.27;;;;;;;9.55;54.45;101755.94;5030080;28;20036;-62
2021/09/30 11:23:03;;;;;;;8.77;6.70;;;;;;;9.41;54.56;101751.22;5030478;28;20073;-63
2021/09/30 11:26:06;;;;;;;9.57;7.13;;;;;;;9.54;54.98;101748.00;5030050;28;20063;-63
2021/09/30 11:28:32;;;;;;;10.05;7.18;;;;;;;9.47;54.88;101753.59;5029894;28;20033;-62
2021/09/30 11:31:25;;;;;;;10.80;7.47;;;;;;;9.68;54.62;101753.56;5029611;28;20083;-61
2021/09/30 11:33:52;;;;;;;11.73;7.30;;;;;;;9.66;54.15;101752.78;5028674;28;20034;-61
2021/09/30 11:36:19;;;;;;;14.48;8.05;;;;;;;9.12;53.92;101648.28;5027796;28;20056;-63
2021/09/30 11:38:46;;;;;;;13.32;8.02;;;;;;;9.74;54.27;101747.06;5028203;28;20111;-63
2021/09/30 11:41:11;;;;;;;15.02;7.97;;;;;;;9.63;54.18;101753.75;5026525;28;20060;-63
2021/09/30 11:43:39;;;;;;;14.85;9.10;;;;;;;9.41;54.45;101720.94;5027020;28;20061;-64
2021/09/30 11:46:23;;;;;;;15.20;8.50;;;;;;;9.58;55.20;101747.75;5029085;28;20030;-62
2021/09/30 11:49:00;;;;;;;10.90;7.68;;;;;;;9.50;55.35;101752.59;5030317;28;20068;-63
2021/09/30 11:51:49;;;;;;;12.35;7.50;;;;;;;9.55;54.99;101747.06;5029880;28;20039;-65
2021/09/30 11:54:23;;;;;;;12.13;8.30;;;;;;;9.53;54.41;101741.75;5029395;28;20113;-63
2021/09/30 11:56:52;;;;;;;10.48;8.05;;;;;;;9.45;54.72;101742.09;5029640;28;20148;-62
2021/09/30 11:59:20;;;;;;;12.68;7.93;;;;;;;9.35;54.80;101735.44;5030981;28;20469;-62
2021/09/30 12:01:57;;;;;;;15.05;8.25;;;;;;;9.44;55.36;101737.69;5029440;28;20396;-61
2021/09/30 12:04:39;;;;;;;11.75;7.45;;;;;;;9.42;54.92;101744.06;5028659;28;20029;-58
2021/09/30 12:07:14;;;;;;;11.77;8.23;;;;;;;9.42;55.09;101731.56;5029885;28;20026;-61
2021/09/30 12:09:40;;;;;;;12.75;8.00;;;;;;;9.40;55.25;101729.88;5030297;28;20049;-64
2021/09/30 12:12:06;;;;;;;12.32;8.25;;;;;;;9.43;55.00;101729.75;5030287;28;20406;-62
2021/09/30 12:14:35;;;;;;;11.30;7.80;;;;;;;9.58;54.52;101734.41;5032002;28;20037;-61
2021/09/30 12:17:03;;;;;;;14.32;8.30;;;;;;;9.61;54.40;101728.91;5033705;28;20029;-59
2021/09/30 12:19:39;;;;;;;12.38;8.48;;;;;;;9.69;54.29;101719.69;5034116;28;20068;-59
2021/09/30 12:22:17;;;;;;;12.52;8.82;;;;;;;9.76;54.30;101726.47;5033591;28;20111;-60
2021/09/30 12:24:50;;;;;;;12.63;9.10;;;;;;;9.76;54.63;101726.47;5033318;28;20037;-61
2021/09/30 12:27:17;;;;;;;17.15;10.35;;;;;;;9.63;54.57;101737.72;5033700;28;20543;-62
2021/09/30 12:29:46;;;;;;;18.02;11.40;;;;;;;9.56;55.48;101725.56;5030971;28;20025;-60
2021/09/30 12:32:17;;;;;;;17.20;10.70;;;;;;;9.47;55.59;101721.50;5050673;28;20032;-61
2021/09/30 12:34:59;;;;;;;15.68;10.50;;;;;;;9.54;55.34;101722.09;5052216;28;20029;-60
2021/09/30 12:37:38;;;;;;;12.80;9.93;;;;;;;9.50;55.02;101725.88;5052649;28;20029;-60
2021/09/30 12:40:37;;;;;;;13.93;9.88;;;;;;;9.48;55.54;101723.25;5052658;28;20033;-60
2021/09/30 12:43:07;;;;;;;12.93;9.38;;;;;;;9.41;55.57;101726.28;5051345;28;20465;-61
2021/09/30 12:45:37;;;;;;;17.73;10.10;;;;;;;9.32;56.00;101725.75;5052819;28;20346;-58
2021/09/30 12:48:08;;;;;;;14.57;9.07;;;;;;;9.29;56.47;101725.03;5052883;28;20033;-61
2021/09/30 12:50:50;;;;;;;11.18;8.35;;;;;;;9.30;56.17;101718.75;5052663;28;20025;-58
2021/09/30 12:53:21;;;;;;;14.88;9.25;;;;;;;9.17;56.44;101710.41;5052513;28;20114;-58
2021/09/30 12:55:48;;;;;;;12.35;9.40;;;;;;;9.11;56.40;101722.25;5052164;28;20473;-58
2021/09/30 12:58:34;;;;;;;12.82;9.80;;;;;;;9.18;56.62;101717.50;5052564;28;20024;-60
2021/09/30 13:01:20;;;;;;;14.43;9.43;;;;;;;9.02;57.20;101709.25;5052884;28;20048;-61
2021/09/30 13:04:28;;;;;;;13.48;9.70;;;;;;;9.19;56.86;101716.56;5052540;28;20037;-62
2021/09/30 13:06:56;;;;;;;13.30;9.30;;;;;;;9.12;56.76;101715.06;5051715;28;20037;-61
2021/09/30 13:09:33;;;;;;;16.80;9.38;;;;;;;9.14;57.48;101724.78;5053200;28;20103;-61
2021/09/30 13:12:04;;;;;;;14.50;8.93;;;;;;;9.14;56.73;101721.22;5051774;28;20040;-59
2021/09/30 13:14:33;;;;;;;13.90;9.25;;;;;;;9.05;56.75;101707.34;5052099;28;20103;-61
2021/09/30 13:17:08;;;;;;;16.88;9.45;;;;;;;9.15;56.64;101714.94;5053047;28;20035;-58
2021/09/30 13:19:51;;;;;;;18.70;9.15;;;;;;;9.13;56.95;101716.81;5052478;28;20036;-60
2021/09/30 13:22:41;;;;;;;14.77;9.15;;;;;;;9.15;56.73;101712.25;5052349;28;20040;-62
2021/09/30 13:25:11;;;;;;;13.55;9.18;;;;;;;9.10;56.98;101706.25;5051689;28;20087;-62
2021/09/30 13:27:40;;;;;;;14.55;9.30;;;;;;;9.10;56.98;101706.25;5052543;28;20029;-62
2021/09/30 13:30:11;;;;;;;17.35;9.95;;;;;;;9.10;56.70;101707.16;5051924;28;20701;-62
2021/09/30 13:32:38;;;;;;;15.73;9.25;;;;;;;9.07;56.57;101706.41;5051826;28;20062;-59
2021/09/30 13:35:05;;;;;;;16.42;10.00;;;;;;;9.02;57.18;101693.25;5052432;28;20525;-61
2021/09/30 13:37:31;;;;;;;16.73;9.32;;;;;;;8.98;56.78;101696.97;5051535;28;20104;-60
2021/09/30 13:39:59;;;;;;;24.77;9.77;;;;;;;8.99;57.03;101693.38;5050000;28;20473;-59
2021/09/30 13:42:27;;;;;;;18.00;9.80;;;;;;;9.01;57.19;101694.19;5052281;28;20036;-60
2021/09/30 13:44:52;;;;;;;15.82;9.52;;;;;;;9.00;56.83;101696.00;5052952;28;20033;-58
2021/09/30 13:47:18;;;;;;;18.75;8.95;;;;;;;9.01;57.16;101691.50;5052471;28;20039;-57
2021/09/30 13:49:44;;;;;;;13.85;9.30;;;;;;;9.02;56.54;101694.13;5047783;28;20029;-58
2021/09/30 13:52:10;;;;;;;15.98;9.38;;;;;;;9.02;56.56;101685.22;5050310;28;20025;-62
2021/09/30 13:54:35;;;;;;;13.63;9.05;;;;;;;9.05;56.50;101688.63;5051705;28;20037;-57
2021/09/30 13:57:01;;;;;;;19.95;10.25;;;;;;;9.04;56.69;101681.56;5051766;28;20113;-56
2021/09/30 13:59:27;;;;;;;14.82;8.93;;;;;;;9.07;56.68;101695.72;5051903;28;20037;-58
2021/09/30 14:01:52;;;;;;;13.82;9.85;;;;;;;9.08;56.07;101686.75;5051205;28;20097;-56
2021/09/30 14:04:18;;;;;;;15.35;9.88;;;;;;;9.05;56.40;101693.13;5051682;28;20029;-54
2021/09/30 14:06:43;;;;;;;17.60;9.93;;;;;;;9.04;56.71;101686.03;5032479;28;20025;-57
2021/09/30 14:09:09;;;;;;;16.73;9.95;;;;;;;9.04;56.48;101686.03;5031386;28;20114;-55
2021/09/30 14:11:35;;;;;;;14.13;10.10;;;;;;;9.07;56.48;101672.56;5031572;28;20037;-54
2021/09/30 14:14:00;;;;;;;15.73;9.68;;;;;;;9.10;56.60;101677.75;5049053;28;20388;-57
2021/09/30 14:16:26;;;;;;;17.27;10.38;;;;;;;9.07;56.83;101674.34;5050439;28;20116;-58
2021/09/30 14:18:52;;;;;;;19.00;9.65;;;;;;;9.05;56.25;101680.63;5051043;28;20454;-57
2021/09/30 14:21:18;;;;;;;17.90;10.60;;;;;;;9.07;56.77;101677.00;5051377;28;20033;-59
2021/09/30 14:23:46;;;;;;;20.75;11.43;;;;;;;9.09;56.77;101676.03;5051834;28;20056;-58
2021/09/30 14:26:12;;;;;;;18.55;9.88;;;;;;;9.07;56.88;101675.22;5051165;28;20461;-59
2021/09/30 14:28:38;;;;;;;15.30;10.50;;;;;;;9.08;57.01;101671.63;5049738;28;20106;-58